GreenTxt   -   no warnings

Nearby METAR Reports

 

ENZV - Stavanger
Päivitetty: 18/02/2019 17:50
Enimmäkseen pilvistä
Enimmäkseen pilvistä
 Tuulen suunta E
Tuuli: E 33 km/h
Lämpötila: 7°C
Wind Chill: 3°C
Kastepiste: 5°C
Kosteus: 87%
Ilmanpaine: 1004 hPa
Clouds: Enimmäkseen pilvistä
Visibility: 10 km
Cloud details: Enimmäkseen pilvistä 274 m
2019/02/18 16:50 ENZV 181650Z 17018KT 9999 BKN009 07/05 Q1004 TEMPO BKN012
ENBR - Bergen
Päivitetty: 18/02/2019 17:50
Enimmäkseen pilvistä
Enimmäkseen pilvistä
 Tuulen suunta E
Tuuli: E 37 km/h
Lämpötila: 7°C
Wind Chill: 2°C
Kastepiste: 5°C
Kosteus: 87%
Ilmanpaine: 1000 hPa
Clouds: Enimmäkseen pilvistä
Visibility: 9 km
Cloud details: Enimmäkseen pilvistä 305 m
2019/02/18 16:50 ENBR 181650Z 18020KT 9000 BKN010 07/05 Q1000 TEMPO BKN008 RMK WIND 1200FT 17024G36KT
 
ENHD - Haugesund
Päivitetty: 18/02/2019 17:50
Enimmäkseen pilvistä
Enimmäkseen pilvistä
 Tuulen suunta E
Tuuli: E 43 km/h, Puuskatuuli: 67 km/h
Lämpötila: 7°C
Wind Chill: 2°C
Kastepiste: 5°C
Kosteus: 87%
Ilmanpaine: 1002 hPa
Clouds: Enimmäkseen pilvistä
Visibility: 9 km
Cloud details: Enimmäkseen pilvistä 213 m
Enimmäkseen pilvistä 305 m
2019/02/18 16:50 ENHD 181650Z 18023G36KT 9000 BKN007 BKN010 07/05 Q1002
ENCN - Kristiansand
Päivitetty: 18/02/2019 17:50
Mist, Vaihetelvaa
Mist, Vaihetelvaa
 Tuulen suunta ELO
Tuuli: ELO 17 km/h
Lämpötila: 6°C
Wind Chill: 3°C
Kastepiste: 6°C
Kosteus: 100%
Ilmanpaine: 1008 hPa
Yhteenveto: Mist
Clouds: Vaihetelvaa
Visibility: 5 km
Cloud details: Vaihetelvaa 152 m
2019/02/18 16:50 ENCN 181650Z 21009KT 5000 BR OVC005 06/06 Q1008
 
ENBO - Bodø
Päivitetty: 18/02/2019 17:50
Nearby showers, Enimmäkseen pilvistä
Nearby showers, Enimmäkseen pilvistä
 Tuulen suunta ELO
Tuuli: ELO 31 km/h
Lämpötila: 6°C
Wind Chill: 1°C
Kastepiste: 3°C
Kosteus: 81%
Ilmanpaine: 991 hPa
Yhteenveto: Nearby Showers
Clouds: Enimmäkseen pilvistä
Visibility: 10 km
Cloud details: Few Clouds 549 m
Puolipilvistä 914 m
Enimmäkseen pilvistä 1676 m
2019/02/18 16:50 ENBO 181650Z 21017KT 9999 VCSH FEW018TCU SCT030 BKN055 06/03 Q0991 TEMPO 23025G35KT
ENKR - Kirkenes
Päivitetty: 18/02/2019 17:50
Light snow, Vaihetelvaa
Light snow, Vaihetelvaa
 Tuulen suunta KA
Tuuli: KA 17 km/h
Lämpötila: -10°C
Wind Chill: -17°C
Kastepiste: -12°C
Kosteus: 85%
Ilmanpaine: 998 hPa
Yhteenveto: Light Snow
Clouds: Vaihetelvaa
Visibility: 4 km
Cloud details: Vaihetelvaa 183 m
2019/02/18 16:50 ENKR 181650Z 13009KT 3900 -SN VV006 M10/M12 Q0998 RMK WIND 731FT 10012KT
 
ENVA - Trondheim
Päivitetty: 18/02/2019 17:50
Selkeätä
Selkeätä
 Tuulen suunta E
Tuuli: E 22 km/h
Lämpötila: 8°C
Wind Chill: 4°C
Kastepiste: -1°C
Kosteus: 53%
Ilmanpaine: 996 hPa
Yhteenveto: Selkeätä
Visibility: greater than 10 km
2019/02/18 16:50 ENVA 181650Z 17012KT CAVOK 08/M01 Q0996 NOSIG RMK WIND 670FT 18019KT
ENGM - Oslo
Päivitetty: 18/02/2019 17:50
Fog, Vaihetelvaa
Fog, Vaihetelvaa
 Tuulen suunta ELO
Tuuli: ELO 20 km/h
Lämpötila: 2°C
Wind Chill: -3°C
Kastepiste: 2°C
Kosteus: 100%
Ilmanpaine: 1005 hPa
Yhteenveto: Fog
Clouds: Vaihetelvaa
Visibility: 1 km
Cloud details: Vaihetelvaa 30 m
2019/02/18 16:50 ENGM 181650Z 20011KT 0700 R19R/0900U R01R/1100D FG VV001 02/02 Q1005 TEMPO 0500 FG VV002